Time;durP1;ratioP1;P1;durP2;ratioP2;P2;SDS_P1;SDS_P2;PMS_P1;PMS_P2;Temp;Humidity;BMP_temperature;BMP_pressure;BME280_temperature;BME280_humidity;BME280_pressure;Samples;Min_cycle;Max_cycle;Signal;HPM_P1;HPM_P2
2024/03/14 00:00:48;;;;;;;3.05;0.93;;;;;;;7.51;100.00;100914.38;5108754;27;20031;-70
2024/03/14 00:03:14;;;;;;;3.03;1.15;;;;;;;7.47;100.00;100917.28;5130422;27;20019;-69
2024/03/14 00:05:39;;;;;;;2.85;1.00;;;;;;;7.44;100.00;100915.75;5129347;27;20073;-69
2024/03/14 00:08:05;;;;;;;5.03;1.42;;;;;;;7.41;100.00;100915.97;5132173;27;20458;-69
2024/03/14 00:10:30;;;;;;;4.40;1.98;;;;;;;7.41;100.00;100917.75;5127607;27;20126;-69
2024/03/14 00:12:57;;;;;;;2.63;1.48;;;;;;;7.37;100.00;100913.72;5130517;27;20426;-69
2024/03/14 00:15:22;;;;;;;3.70;0.90;;;;;;;7.33;100.00;100906.16;5124926;27;20033;-69
2024/03/14 00:17:48;;;;;;;4.45;1.38;;;;;;;7.29;100.00;100909.09;5131148;27;20027;-69
2024/03/14 00:20:14;;;;;;;2.67;1.00;;;;;;;7.27;100.00;100918.75;5127068;27;20070;-69
2024/03/14 00:22:40;;;;;;;3.25;1.27;;;;;;;7.29;100.00;100911.69;5129139;27;20039;-69
2024/03/14 00:25:09;;;;;;;4.50;1.20;;;;;;;7.30;100.00;100908.16;5126761;27;20038;-70
2024/03/14 00:27:38;;;;;;;2.60;1.35;;;;;;;7.29;100.00;100914.28;5130443;27;20150;-69
2024/03/14 00:30:11;;;;;;;4.40;0.98;;;;;;;7.29;100.00;100914.28;5125274;27;20027;-70
2024/03/14 00:32:37;;;;;;;2.10;0.85;;;;;;;7.27;100.00;100904.03;5131669;27;20382;-70
2024/03/14 00:35:02;;;;;;;4.05;1.65;;;;;;;7.30;100.00;100905.56;5129891;27;20042;-69
2024/03/14 00:37:29;;;;;;;6.57;1.10;;;;;;;7.28;100.00;100903.09;5106515;27;20032;-70
2024/03/14 00:39:55;;;;;;;6.50;0.47;;;;;;;7.30;100.00;100888.25;5127726;27;20445;-69
2024/03/14 00:42:20;;;;;;;2.22;0.98;;;;;;;7.35;100.00;100892.28;5109583;27;20039;-70
2024/03/14 00:44:46;;;;;;;2.63;1.08;;;;;;;7.39;100.00;100886.75;5129473;27;20030;-69
2024/03/14 00:47:12;;;;;;;2.47;0.90;;;;;;;7.44;100.00;100895.00;5127134;27;20049;-69
2024/03/14 00:49:38;;;;;;;3.45;0.85;;;;;;;7.38;100.00;100887.69;5108802;27;20038;-70
2024/03/14 00:52:04;;;;;;;4.22;0.82;;;;;;;7.31;100.00;100886.50;5125399;27;20023;-69
2024/03/14 00:54:31;;;;;;;8.30;1.23;;;;;;;7.26;100.00;100883.41;5127416;27;20543;-70
2024/03/14 00:56:57;;;;;;;2.22;0.82;;;;;;;7.07;100.00;100888.31;5114258;27;20027;-70
2024/03/14 00:59:23;;;;;;;5.53;1.58;;;;;;;6.78;100.00;100893.81;5107996;27;20072;-70
2024/03/14 01:01:48;;;;;;;3.08;1.13;;;;;;;6.77;100.00;100886.97;5129305;27;20038;-69
2024/03/14 01:04:13;;;;;;;3.42;1.42;;;;;;;6.84;100.00;100893.38;5125045;27;20019;-70
2024/03/14 01:06:39;;;;;;;2.75;1.05;;;;;;;6.85;100.00;100884.66;5130434;27;20027;-70
2024/03/14 01:09:06;;;;;;;2.53;0.95;;;;;;;6.92;100.00;100877.28;5128293;27;20489;-70
2024/03/14 01:11:32;;;;;;;1.80;1.10;;;;;;;7.02;100.00;100880.88;5102697;27;266430;-69
2024/03/14 01:13:57;;;;;;;3.45;1.00;;;;;;;7.13;100.00;100880.06;5129955;27;20073;-70
2024/03/14 01:16:22;;;;;;;2.88;0.98;;;;;;;7.19;100.00;100882.19;5123190;27;20039;-70
2024/03/14 01:18:50;;;;;;;5.63;1.75;;;;;;;7.12;100.00;100871.44;5126288;27;20031;-70
2024/03/14 01:21:16;;;;;;;2.78;1.23;;;;;;;6.82;100.00;100869.34;5100922;27;20024;-70
2024/03/14 01:23:41;;;;;;;5.53;1.45;;;;;;;6.55;100.00;100868.75;5123935;27;20027;-70
2024/03/14 01:26:08;;;;;;;2.78;1.27;;;;;;;6.38;100.00;100869.09;5104509;27;20042;-69
2024/03/14 01:28:33;;;;;;;6.20;1.65;;;;;;;6.20;100.00;100866.84;5125577;27;20038;-70
2024/03/14 01:30:59;;;;;;;4.00;1.58;;;;;;;6.06;100.00;100863.59;5130093;27;20019;-69
2024/03/14 01:33:25;;;;;;;5.90;2.35;;;;;;;5.93;100.00;100874.75;5123587;27;20027;-70
2024/03/14 01:35:54;;;;;;;6.32;2.33;;;;;;;5.84;100.00;100869.34;5128825;27;20033;-70
2024/03/14 01:38:20;;;;;;;6.78;2.03;;;;;;;5.76;100.00;100863.88;5111763;27;20034;-70
2024/03/14 01:40:45;;;;;;;4.10;1.65;;;;;;;5.68;100.00;100861.81;5130221;27;20039;-70
2024/03/14 01:43:11;;;;;;;4.25;2.17;;;;;;;5.61;100.00;100866.59;5123468;27;20431;-69
2024/03/14 01:45:37;;;;;;;6.30;2.20;;;;;;;5.58;100.00;100866.78;5125249;27;20558;-69
2024/03/14 01:48:02;;;;;;;5.38;1.70;;;;;;;5.53;100.00;100860.28;5127603;27;20386;-69
2024/03/14 01:50:28;;;;;;;4.60;1.80;;;;;;;5.66;100.00;100856.75;5124073;27;20110;-69
2024/03/14 01:52:53;;;;;;;2.85;1.63;;;;;;;5.64;100.00;100852.63;5124802;27;20038;-70
2024/03/14 01:55:19;;;;;;;2.13;0.90;;;;;;;6.03;100.00;100851.69;5130324;27;20041;-69
2024/03/14 01:57:44;;;;;;;1.85;0.80;;;;;;;6.39;100.00;100847.44;5109615;27;20117;-70
2024/03/14 02:00:14;;;;;;;2.97;0.98;;;;;;;6.46;100.00;100844.31;5105450;27;20038;-69
2024/03/14 02:02:40;;;;;;;2.00;0.90;;;;;;;6.33;100.00;100841.78;5105294;27;20039;-69
2024/03/14 02:05:31;;;;;;;2.30;1.05;;;;;;;6.28;100.00;100846.44;5126816;27;20054;-69
2024/03/14 02:07:58;;;;;;;2.35;0.82;;;;;;;6.36;100.00;100845.91;5124675;27;20034;-69
2024/03/14 02:10:25;;;;;;;4.53;1.20;;;;;;;6.33;100.00;100846.94;5126703;27;20150;-69
2024/03/14 02:12:53;;;;;;;2.55;0.85;;;;;;;6.42;100.00;100855.00;5110545;27;20042;-69
2024/03/14 02:15:19;;;;;;;3.30;0.90;;;;;;;6.39;100.00;100845.69;5125616;27;20035;-69
2024/03/14 02:17:45;;;;;;;5.53;0.98;;;;;;;6.58;100.00;100855.59;5124927;27;20145;-69
2024/03/14 02:20:14;;;;;;;3.92;1.10;;;;;;;6.61;100.00;100855.38;5121186;27;20074;-70
2024/03/14 02:22:40;;;;;;;2.25;1.15;;;;;;;6.54;100.00;100848.97;5108449;27;20379;-69
2024/03/14 02:25:06;;;;;;;4.38;1.63;;;;;;;6.32;100.00;100854.81;5125971;27;20465;-69
2024/03/14 02:27:34;;;;;;;5.57;1.05;;;;;;;6.20;100.00;100850.50;5127798;27;20550;-69
2024/03/14 02:29:59;;;;;;;5.90;1.33;;;;;;;6.21;100.00;100852.97;5128638;27;20080;-69
2024/03/14 02:32:25;;;;;;;2.17;1.00;;;;;;;6.30;100.00;100852.34;5126255;27;20027;-69
2024/03/14 02:34:50;;;;;;;4.13;1.33;;;;;;;6.43;100.00;100851.47;5127095;27;20080;-69
2024/03/14 02:37:16;;;;;;;4.43;1.02;;;;;;;6.51;100.00;100855.19;5125835;27;20034;-69
2024/03/14 02:39:42;;;;;;;3.45;1.00;;;;;;;6.63;100.00;100854.28;5121196;27;20042;-69
2024/03/14 02:42:10;;;;;;;2.25;0.80;;;;;;;6.68;100.00;100851.38;5129630;27;20035;-69
2024/03/14 02:44:36;;;;;;;3.67;0.90;;;;;;;6.70;100.00;100854.69;5124736;27;20045;-69
2024/03/14 02:47:02;;;;;;;3.05;1.08;;;;;;;6.74;100.00;100855.28;5123753;27;20054;-69
2024/03/14 02:49:27;;;;;;;1.33;0.60;;;;;;;6.73;100.00;100849.28;5123851;27;20030;-69
2024/03/14 02:51:53;;;;;;;4.45;0.73;;;;;;;6.72;100.00;100852.81;5127102;27;20496;-69
2024/03/14 02:54:19;;;;;;;4.72;1.10;;;;;;;6.72;100.00;100852.81;5122407;27;20162;-69
2024/03/14 02:56:49;;;;;;;5.22;0.95;;;;;;;6.71;100.00;100843.38;5125633;27;20031;-69
2024/03/14 02:59:15;;;;;;;2.88;0.70;;;;;;;6.72;100.00;100839.84;5126930;27;20114;-69
2024/03/14 03:01:41;;;;;;;2.30;0.70;;;;;;;6.75;100.00;100842.22;5126828;27;20126;-70
2024/03/14 03:04:09;;;;;;;7.75;0.60;;;;;;;6.78;100.00;100841.19;5126176;27;20114;-69
2024/03/14 03:06:34;;;;;;;2.65;0.70;;;;;;;6.81;100.00;100841.78;5125254;27;20585;-69
2024/03/14 03:08:59;;;;;;;2.83;0.70;;;;;;;6.85;100.00;100842.41;5127521;27;20058;-69
2024/03/14 03:11:26;;;;;;;2.50;0.85;;;;;;;6.87;100.00;100838.75;5126994;27;20043;-69
2024/03/14 03:13:52;;;;;;;2.00;0.80;;;;;;;6.85;100.00;100840.63;5128339;27;20023;-70
2024/03/14 03:16:18;;;;;;;1.95;0.80;;;;;;;6.84;100.00;100843.31;5124825;27;20034;-70
2024/03/14 03:18:44;;;;;;;8.95;1.08;;;;;;;6.75;100.00;100837.03;5126707;27;20038;-70
2024/03/14 03:21:09;;;;;;;2.08;0.82;;;;;;;6.66;100.00;100842.88;5132116;27;20027;-69
2024/03/14 03:23:35;;;;;;;2.30;0.57;;;;;;;6.58;100.00;100845.22;5126521;27;20038;-69
2024/03/14 03:26:00;;;;;;;2.05;0.70;;;;;;;6.56;100.00;100842.75;5126275;27;20127;-69
2024/03/14 03:28:26;;;;;;;1.63;0.40;;;;;;;6.54;100.00;100843.78;5127520;27;20096;-69
2024/03/14 03:30:52;;;;;;;5.70;0.90;;;;;;;6.53;100.00;100852.50;5112371;27;20147;-69
2024/03/14 03:33:17;;;;;;;3.55;0.50;;;;;;;6.49;100.00;100840.69;5128509;27;20118;-70
2024/03/14 03:35:45;;;;;;;2.55;0.65;;;;;;;6.49;100.00;100843.28;5124520;27;20028;-70
2024/03/14 03:38:13;;;;;;;2.00;0.52;;;;;;;6.51;100.00;100842.25;5127272;27;20091;-69
2024/03/14 03:40:39;;;;;;;3.47;0.82;;;;;;;6.54;100.00;100844.63;5124166;27;20032;-69
2024/03/14 03:43:05;;;;;;;1.92;0.70;;;;;;;6.55;100.00;100841.09;5124598;27;20087;-69
2024/03/14 03:45:31;;;;;;;2.88;0.50;;;;;;;6.52;100.00;100843.91;5127634;27;20063;-69
2024/03/14 03:47:57;;;;;;;1.73;0.43;;;;;;;6.54;100.00;100848.97;5128572;27;20055;-69
2024/03/14 03:50:26;;;;;;;2.10;0.60;;;;;;;6.51;100.00;100847.41;5127193;27;20109;-69
2024/03/14 03:52:51;;;;;;;1.45;0.50;;;;;;;6.48;100.00;100839.03;5123526;27;20023;-69
2024/03/14 03:55:17;;;;;;;1.95;0.57;;;;;;;6.40;100.00;100849.94;5127014;27;20042;-69
2024/03/14 03:57:44;;;;;;;1.83;0.73;;;;;;;6.22;100.00;100846.88;5126847;27;20028;-69
2024/03/14 04:02:54;;;;;;;1.98;1.08;;;;;;;5.80;100.00;100854.97;5127139;27;20252;-70
2024/03/14 04:05:20;;;;;;;4.80;1.13;;;;;;;5.72;100.00;100854.66;5110748;27;20517;-69
2024/03/14 04:07:49;;;;;;;2.58;1.02;;;;;;;5.68;100.00;100854.03;5132622;27;20150;-70
2024/03/14 04:10:15;;;;;;;7.18;0.82;;;;;;;5.92;100.00;100851.59;5128762;27;20047;-70
2024/03/14 04:12:40;;;;;;;2.50;0.82;;;;;;;6.14;100.00;100848.38;5131351;27;20711;-70
2024/03/14 04:15:06;;;;;;;3.78;0.70;;;;;;;6.25;100.00;100854.41;5130574;27;20031;-70
2024/03/14 04:17:33;;;;;;;3.72;0.82;;;;;;;6.18;100.00;100848.00;5128028;27;20031;-70
2024/03/14 04:19:59;;;;;;;1.73;0.65;;;;;;;5.97;100.00;100854.69;5128904;27;20038;-69
2024/03/14 04:22:25;;;;;;;2.47;1.13;;;;;;;5.81;100.00;100856.63;5128722;27;20045;-70
2024/03/14 04:24:54;;;;;;;4.07;1.10;;;;;;;5.83;100.00;100857.34;5111791;27;20023;-70
2024/03/14 04:27:21;;;;;;;6.47;1.45;;;;;;;5.91;100.00;100861.13;5124691;27;20024;-70
2024/03/14 04:29:47;;;;;;;2.75;0.77;;;;;;;5.99;100.00;100853.66;5127734;27;20031;-70
2024/03/14 04:32:13;;;;;;;2.78;0.80;;;;;;;6.05;100.00;100859.34;5126124;27;20030;-69
2024/03/14 04:34:39;;;;;;;3.88;0.93;;;;;;;6.14;100.00;100867.31;5132065;27;20027;-70
2024/03/14 04:37:06;;;;;;;2.38;0.73;;;;;;;6.18;100.00;100865.31;5112686;27;20157;-70
2024/03/14 04:39:33;;;;;;;4.72;0.50;;;;;;;6.18;100.00;100863.53;5120020;27;20042;-70
2024/03/14 04:41:59;;;;;;;2.75;0.60;;;;;;;6.16;100.00;100864.56;5129459;27;20472;-70
2024/03/14 04:44:28;;;;;;;3.47;0.88;;;;;;;6.14;100.00;100867.31;5131647;27;20039;-69
2024/03/14 04:46:54;;;;;;;3.53;0.57;;;;;;;6.14;100.00;100872.47;5131428;27;20359;-70
2024/03/14 04:49:23;;;;;;;5.28;1.45;;;;;;;6.13;100.00;100867.41;5127757;27;20538;-70
2024/03/14 04:51:48;;;;;;;4.63;0.65;;;;;;;6.18;100.00;100871.31;5127433;27;20038;-70
2024/03/14 04:54:17;;;;;;;5.38;1.02;;;;;;;6.17;100.00;100874.81;5123439;27;20031;-69
2024/03/14 04:56:42;;;;;;;2.08;0.88;;;;;;;5.94;100.00;100867.84;5123238;27;20031;-69
2024/03/14 04:59:12;;;;;;;2.22;0.82;;;;;;;5.70;100.00;100877.22;5129370;27;20054;-70
2024/03/14 05:01:38;;;;;;;1.52;0.88;;;;;;;5.49;100.00;100876.91;5128979;27;20035;-70
2024/03/14 05:04:04;;;;;;;2.70;1.02;;;;;;;5.27;100.00;100873.16;5121280;27;20031;-70
2024/03/14 05:06:30;;;;;;;7.20;0.98;;;;;;;5.10;100.00;100877.78;5122022;27;20050;-69
2024/03/14 05:08:55;;;;;;;1.95;0.82;;;;;;;5.16;100.00;100870.47;5127845;27;20039;-70
2024/03/14 05:11:23;;;;;;;5.18;1.38;;;;;;;5.43;100.00;100885.91;5129519;27;20051;-69
2024/03/14 05:13:56;;;;;;;4.70;1.48;;;;;;;5.44;100.00;100882.38;5130439;27;20521;-70
2024/03/14 05:16:22;;;;;;;2.55;0.90;;;;;;;5.46;100.00;100880.53;5129511;27;20490;-70
2024/03/14 05:18:47;;;;;;;1.63;0.70;;;;;;;5.75;100.00;100888.06;5130028;27;20118;-70
2024/03/14 05:21:15;;;;;;;2.08;0.70;;;;;;;5.88;100.00;100891.50;5129621;27;20038;-70
2024/03/14 05:23:41;;;;;;;3.22;0.77;;;;;;;6.01;100.00;100881.19;5129019;27;20076;-70
2024/03/14 05:26:07;;;;;;;1.95;0.93;;;;;;;6.14;100.00;100879.41;5123827;27;20720;-70
2024/03/14 05:28:33;;;;;;;3.85;0.90;;;;;;;6.22;100.00;100874.50;5127264;27;20027;-70
2024/03/14 05:30:59;;;;;;;2.28;0.93;;;;;;;6.28;100.00;100874.09;5128549;27;20069;-69
2024/03/14 05:33:24;;;;;;;2.78;0.70;;;;;;;6.28;100.00;100874.09;5130395;27;20051;-70
2024/03/14 05:35:50;;;;;;;2.42;0.70;;;;;;;6.27;100.00;100868.06;5129874;27;20027;-70
2024/03/14 05:38:15;;;;;;;2.70;1.10;;;;;;;6.28;100.00;100876.66;5126919;27;20027;-70
2024/03/14 05:40:40;;;;;;;2.25;0.73;;;;;;;6.27;100.00;100873.25;5108205;27;20099;-69
2024/03/14 05:43:06;;;;;;;3.28;0.70;;;;;;;6.33;100.00;100879.75;5128829;27;20134;-70
2024/03/14 05:45:35;;;;;;;3.10;0.60;;;;;;;6.38;100.00;100876.84;5129406;27;20475;-69
2024/03/14 05:48:11;;;;;;;5.47;0.80;;;;;;;6.42;100.00;100873.94;5130183;27;20033;-69
2024/03/14 05:50:37;;;;;;;3.10;0.80;;;;;;;6.36;100.00;100876.97;5112659;27;20106;-70
2024/03/14 05:53:03;;;;;;;1.67;0.77;;;;;;;6.32;100.00;100881.53;5131480;27;20027;-69
2024/03/14 05:55:29;;;;;;;2.47;0.63;;;;;;;6.29;100.00;100880.91;5125195;27;20038;-70
2024/03/14 05:57:55;;;;;;;4.32;0.80;;;;;;;6.24;100.00;100883.00;5125827;27;20030;-70
2024/03/14 06:00:21;;;;;;;2.97;0.60;;;;;;;6.21;100.00;100885.78;5123887;27;20035;-70
2024/03/14 06:02:47;;;;;;;5.18;0.55;;;;;;;6.17;100.00;100886.94;5122053;27;20031;-69
2024/03/14 06:05:14;;;;;;;3.17;0.77;;;;;;;6.15;100.00;100881.84;5122051;27;20046;-70
2024/03/14 06:07:40;;;;;;;8.30;0.88;;;;;;;6.15;100.00;100881.03;5108370;27;20027;-69
2024/03/14 06:10:07;;;;;;;3.97;0.70;;;;;;;6.14;100.00;100888.00;5130587;27;20558;-69
2024/03/14 06:12:32;;;;;;;3.17;0.95;;;;;;;6.17;100.00;100882.59;5131436;27;20027;-69
2024/03/14 06:14:58;;;;;;;3.72;1.00;;;;;;;6.24;100.00;100890.75;5112959;27;20066;-69
2024/03/14 06:17:25;;;;;;;2.50;0.73;;;;;;;6.26;100.00;100891.47;5129649;27;20039;-69
2024/03/14 06:19:50;;;;;;;2.17;0.75;;;;;;;6.28;100.00;100897.38;5128188;27;20514;-70
2024/03/14 06:22:16;;;;;;;4.47;0.80;;;;;;;6.32;100.00;100893.63;5125081;27;20054;-69
2024/03/14 06:24:44;;;;;;;1.98;0.90;;;;;;;6.36;100.00;100894.25;5109635;27;20053;-69
2024/03/14 06:27:12;;;;;;;2.00;0.98;;;;;;;6.38;100.00;100903.56;5119941;27;20032;-69
2024/03/14 06:29:38;;;;;;;7.57;1.20;;;;;;;6.42;100.00;100907.59;5104871;27;20137;-69
2024/03/14 06:32:04;;;;;;;3.45;1.10;;;;;;;6.47;100.00;100909.88;5126839;27;20488;-69
2024/03/14 06:34:30;;;;;;;9.35;1.55;;;;;;;6.54;100.00;100916.28;5105969;27;20080;-69
2024/03/14 06:36:57;;;;;;;9.57;1.25;;;;;;;6.59;100.00;100907.25;5116750;27;20031;-69
2024/03/14 06:39:25;;;;;;;3.72;1.08;;;;;;;6.66;100.00;100916.22;5113206;27;20356;-69
2024/03/14 06:41:51;;;;;;;7.70;0.75;;;;;;;6.79;100.00;100908.41;5127475;27;20406;-69
2024/03/14 06:44:17;;;;;;;4.10;0.95;;;;;;;6.92;100.00;100910.94;5110459;27;20031;-69
2024/03/14 06:46:43;;;;;;;4.32;0.93;;;;;;;7.06;100.00;100917.75;5121042;27;20104;-69
2024/03/14 06:49:12;;;;;;;2.70;0.65;;;;;;;7.18;99.47;100916.81;5121562;27;20087;-69
2024/03/14 06:51:44;;;;;;;3.95;0.90;;;;;;;7.29;98.18;100915.09;5123334;27;20019;-70
2024/03/14 06:54:12;;;;;;;1.83;0.60;;;;;;;7.45;98.17;100914.81;5114454;27;20080;-69
2024/03/14 06:56:38;;;;;;;3.33;0.88;;;;;;;7.61;96.21;100910.13;5123138;27;20149;-69
2024/03/14 06:59:06;;;;;;;4.63;0.50;;;;;;;7.74;96.43;100914.41;5124317;27;20071;-69
2024/03/14 07:01:32;;;;;;;1.52;0.60;;;;;;;7.82;94.09;100906.88;5127541;27;20169;-69
2024/03/14 07:04:04;;;;;;;3.92;0.85;;;;;;;7.92;94.95;100913.03;5124346;27;20103;-69
2024/03/14 07:06:31;;;;;;;3.55;0.80;;;;;;;8.22;94.63;100912.41;5124314;27;20044;-69
2024/03/14 07:08:58;;;;;;;3.35;0.68;;;;;;;8.36;92.19;100917.41;5124898;27;20019;-69
2024/03/14 07:11:26;;;;;;;2.60;0.93;;;;;;;8.39;92.41;100930.16;5127491;27;20039;-69
2024/03/14 07:13:54;;;;;;;3.50;0.75;;;;;;;8.54;90.50;100923.75;5123767;27;20505;-69
2024/03/14 07:16:23;;;;;;;2.95;0.63;;;;;;;8.47;91.92;100929.56;5119798;27;20215;-69
2024/03/14 07:18:54;;;;;;;5.88;1.08;;;;;;;8.38;91.36;100936.28;5123164;27;20063;-69
2024/03/14 07:21:22;;;;;;;1.98;0.40;;;;;;;8.44;92.31;100929.81;5110490;28;20072;-69
2024/03/14 07:23:48;;;;;;;2.13;0.70;;;;;;;8.50;91.74;100934.53;5124278;27;20155;-69
2024/03/14 07:26:23;;;;;;;2.97;0.70;;;;;;;8.49;91.94;100930.28;5119949;27;20117;-69
2024/03/14 07:28:50;;;;;;;2.80;0.70;;;;;;;8.55;92.00;100929.75;5119783;27;20031;-69
2024/03/14 07:31:16;;;;;;;6.03;0.68;;;;;;;8.77;90.40;100932.34;5109108;27;20031;-69
2024/03/14 07:33:45;;;;;;;1.50;0.43;;;;;;;8.80;90.53;100928.66;5121875;27;20088;-69
2024/03/14 07:36:15;;;;;;;2.47;0.70;;;;;;;8.81;89.63;100932.91;5120019;27;20058;-69
2024/03/14 07:38:43;;;;;;;7.20;0.98;;;;;;;8.95;89.62;100941.28;5129409;27;20042;-69
2024/03/14 07:41:09;;;;;;;3.33;0.60;;;;;;;9.15;89.64;100938.84;5132189;27;20031;-69
2024/03/14 07:43:35;;;;;;;4.05;0.60;;;;;;;9.38;89.46;100935.22;5134906;27;20057;-69
2024/03/14 07:46:00;;;;;;;4.65;0.88;;;;;;;9.50;87.15;100938.56;5134490;27;20031;-68
2024/03/14 07:48:27;;;;;;;3.53;0.63;;;;;;;9.55;87.65;100944.22;5129200;27;20054;-68
2024/03/14 07:50:52;;;;;;;5.28;0.95;;;;;;;9.65;86.73;100940.72;5127069;27;20404;-68
2024/03/14 07:53:19;;;;;;;1.50;0.40;;;;;;;9.87;86.60;100957.16;5120330;27;20026;-68
2024/03/14 07:55:45;;;;;;;3.90;0.73;;;;;;;10.04;84.96;100955.72;5126402;27;20031;-68
2024/03/14 07:58:11;;;;;;;1.63;0.40;;;;;;;10.05;84.88;100953.00;5128574;27;20046;-68
2024/03/14 08:00:37;;;;;;;2.42;0.50;;;;;;;10.04;84.92;100958.34;5131307;27;20106;-68
2024/03/14 08:03:03;;;;;;;1.58;0.50;;;;;;;10.17;84.87;100956.34;5133708;27;20160;-68
2024/03/14 08:05:37;;;;;;;3.03;0.73;;;;;;;10.16;84.86;100958.13;5131181;27;20043;-69
2024/03/14 08:08:03;;;;;;;2.83;1.05;;;;;;;10.33;84.97;100951.53;5124793;27;20126;-68
2024/03/14 08:10:28;;;;;;;2.75;0.52;;;;;;;10.53;83.61;100948.03;5129739;27;20474;-68
2024/03/14 08:12:57;;;;;;;1.52;0.63;;;;;;;10.99;82.37;100944.00;5132448;27;20039;-68
2024/03/14 08:15:35;;;;;;;7.88;0.98;;;;;;;11.45;79.87;100942.50;5133604;27;20076;-68
2024/03/14 08:18:01;;;;;;;1.52;0.45;;;;;;;11.33;78.71;100946.22;5115017;27;20039;-68
2024/03/14 08:20:27;;;;;;;2.80;0.75;;;;;;;11.03;79.14;100949.78;5123810;27;20382;-68
2024/03/14 08:22:52;;;;;;;2.17;0.50;;;;;;;11.27;79.29;100948.44;5110764;27;20027;-68
2024/03/14 08:25:19;;;;;;;1.95;0.60;;;;;;;11.66;78.20;100945.78;5125034;27;20101;-68
2024/03/14 08:27:46;;;;;;;2.67;1.20;;;;;;;11.99;77.03;100946.28;5135320;27;20043;-68
2024/03/14 08:30:13;;;;;;;4.47;0.65;;;;;;;11.98;75.39;100944.63;5126864;27;20035;-68
2024/03/14 08:32:39;;;;;;;1.80;0.70;;;;;;;11.82;78.40;100942.59;5128633;27;20484;-68
2024/03/14 08:35:05;;;;;;;1.67;0.85;;;;;;;11.95;77.03;100948.34;5113888;27;20054;-68
2024/03/14 08:37:31;;;;;;;3.30;0.60;;;;;;;11.90;78.39;100940.94;5108997;27;20360;-68
2024/03/14 08:39:56;;;;;;;1.83;0.60;;;;;;;11.76;78.77;100943.97;5131506;27;20043;-68
2024/03/14 08:42:31;;;;;;;4.43;1.20;;;;;;;11.74;80.70;100945.09;5132911;27;20043;-68
2024/03/14 08:44:58;;;;;;;1.88;0.50;;;;;;;11.78;77.68;100938.66;5127599;27;20036;-68
2024/03/14 08:47:23;;;;;;;2.30;0.57;;;;;;;11.95;80.31;100950.97;5124051;27;20393;-68
2024/03/14 08:49:49;;;;;;;1.55;0.68;;;;;;;12.02;79.56;100944.22;5123990;27;20039;-68
2024/03/14 08:52:14;;;;;;;4.68;0.60;;;;;;;12.14;80.87;100950.91;5127494;27;20106;-68
2024/03/14 08:54:45;;;;;;;2.00;0.60;;;;;;;12.33;75.60;100954.41;5133578;27;20023;-68
2024/03/14 08:57:12;;;;;;;1.42;0.68;;;;;;;12.49;78.63;100938.94;5127410;27;20027;-68
2024/03/14 08:59:39;;;;;;;4.18;0.65;;;;;;;12.51;76.92;100944.84;5123438;27;20046;-68
2024/03/14 09:02:09;;;;;;;5.63;0.50;;;;;;;12.58;78.22;100943.28;5129803;27;20059;-68
2024/03/14 09:04:41;;;;;;;3.38;0.65;;;;;;;12.64;78.05;100945.31;5122387;27;20058;-68
2024/03/14 09:07:07;;;;;;;2.38;0.52;;;;;;;12.85;82.05;100942.44;5118549;27;20092;-68
2024/03/14 09:09:35;;;;;;;1.08;0.38;;;;;;;13.01;73.63;100942.59;5133064;27;20035;-68
2024/03/14 09:12:25;;;;;;;1.27;0.50;;;;;;;12.94;72.18;100944.97;5128765;27;20047;-68
2024/03/14 09:14:47;;;;;;;4.80;0.47;;;;;;;12.87;82.30;100945.72;5124723;27;20047;-70
2024/03/14 09:17:13;;;;;;;3.67;0.32;;;;;;;12.79;81.70;100945.63;5123744;27;20390;-69
2024/03/14 09:19:39;;;;;;;6.68;0.70;;;;;;;12.69;77.30;100942.28;5130643;27;20031;-69
2024/03/14 09:22:06;;;;;;;6.78;0.70;;;;;;;12.70;81.15;100941.31;5132046;27;20035;-69
2024/03/14 09:24:32;;;;;;;3.42;0.88;;;;;;;12.65;83.91;100948.75;5132540;27;20485;-69
2024/03/14 09:26:58;;;;;;;3.63;0.60;;;;;;;12.58;84.31;100940.69;5132560;27;20363;-69
2024/03/14 09:29:23;;;;;;;4.30;0.50;;;;;;;12.54;85.46;100940.13;5132164;27;20023;-69
2024/03/14 09:31:49;;;;;;;5.72;0.95;;;;;;;12.61;86.01;100935.16;5132785;27;20023;-69
2024/03/14 09:34:16;;;;;;;5.03;0.52;;;;;;;12.66;84.53;100932.09;5131921;27;20502;-69
2024/03/14 09:36:43;;;;;;;3.83;0.82;;;;;;;12.51;83.97;100932.59;5139125;27;20393;-69
2024/03/14 09:39:21;;;;;;;6.05;1.02;;;;;;;12.57;80.38;100937.25;5112743;27;20110;-70
2024/03/14 09:41:48;;;;;;;2.22;0.63;;;;;;;12.77;82.41;100930.09;5114088;27;20043;-69
2024/03/14 09:44:18;;;;;;;1.95;0.57;;;;;;;12.90;83.69;100924.50;5131701;27;20394;-69
2024/03/14 09:46:49;;;;;;;3.10;0.77;;;;;;;12.99;74.11;100921.00;5131097;27;20053;-70
2024/03/14 09:49:18;;;;;;;0.70;0.40;;;;;;;12.96;79.42;100926.53;5127206;27;20573;-70
2024/03/14 09:51:47;;;;;;;1.63;0.40;;;;;;;12.99;77.77;100922.78;5113839;27;20037;-69
2024/03/14 09:54:16;;;;;;;2.67;0.55;;;;;;;13.12;79.77;100923.25;5129442;27;20500;-70
2024/03/14 09:56:42;;;;;;;3.50;0.68;;;;;;;13.07;75.52;100926.31;5131651;27;20038;-69
2024/03/14 09:59:07;;;;;;;4.15;0.55;;;;;;;13.05;80.23;100927.44;5131183;27;20412;-69
2024/03/14 10:01:34;;;;;;;2.65;0.73;;;;;;;13.03;81.59;100929.38;5131035;27;20436;-70
2024/03/14 10:04:00;;;;;;;4.22;0.68;;;;;;;13.03;82.27;100926.75;5132000;27;20027;-69
2024/03/14 10:06:25;;;;;;;5.57;1.75;;;;;;;12.74;79.95;100930.41;5131258;27;20037;-69
2024/03/14 10:08:51;;;;;;;6.50;2.03;;;;;;;12.96;80.90;100927.34;5131541;27;20122;-69
2024/03/14 10:11:20;;;;;;;5.00;1.55;;;;;;;13.02;82.57;100923.31;5130905;27;20104;-69
2024/03/14 10:13:47;;;;;;;10.65;2.15;;;;;;;13.08;82.76;100927.13;5132097;27;20039;-69
2024/03/14 10:16:17;;;;;;;7.90;2.78;;;;;;;13.18;82.74;100918.28;5130891;27;20375;-65
2024/03/14 10:18:43;;;;;;;6.95;2.65;;;;;;;13.24;81.91;100916.81;5132176;27;20477;-65
2024/03/14 10:21:08;;;;;;;12.13;4.55;;;;;;;13.20;83.63;100916.34;5130893;27;20027;-65
2024/03/14 10:23:35;;;;;;;14.13;4.68;;;;;;;13.18;84.47;100917.47;5113223;27;20035;-66
2024/03/14 10:26:01;;;;;;;11.52;4.03;;;;;;;13.09;77.30;100916.53;5131147;27;20118;-65
2024/03/14 10:28:28;;;;;;;9.75;3.40;;;;;;;13.34;77.73;100912.34;5130933;27;20035;-66
2024/03/14 10:30:57;;;;;;;7.68;2.80;;;;;;;13.57;80.16;100905.66;5131696;27;20031;-65
2024/03/14 10:33:26;;;;;;;8.23;3.63;;;;;;;13.49;81.47;100900.34;5130936;27;20045;-66
2024/03/14 10:35:58;;;;;;;5.85;2.60;;;;;;;13.56;80.38;100904.00;5112900;27;20035;-66
2024/03/14 10:38:27;;;;;;;7.68;2.47;;;;;;;13.57;80.67;100903.03;5130741;27;20031;-66
2024/03/14 10:41:02;;;;;;;8.55;3.85;;;;;;;13.52;82.98;100907.91;5131375;27;20122;-65
2024/03/14 10:43:42;;;;;;;10.85;4.03;;;;;;;13.59;83.86;100898.47;5130612;27;20031;-66
2024/03/14 10:46:15;;;;;;;7.90;3.47;;;;;;;13.56;83.36;100901.38;5130403;27;20023;-66
2024/03/14 10:48:44;;;;;;;11.02;3.88;;;;;;;13.48;78.57;100888.25;5121064;27;20490;-66
2024/03/14 10:51:12;;;;;;;10.57;3.40;;;;;;;13.58;83.64;100891.59;5130062;27;20029;-66
2024/03/14 10:53:40;;;;;;;11.82;4.25;;;;;;;13.69;84.13;100889.69;5131334;27;20027;-66
2024/03/14 10:56:16;;;;;;;12.05;5.55;;;;;;;13.76;84.06;100885.47;5130563;27;20026;-66
2024/03/14 10:58:45;;;;;;;14.13;5.68;;;;;;;13.87;80.85;100890.44;5125062;27;20138;-66
2024/03/14 11:01:11;;;;;;;13.98;5.88;;;;;;;14.07;82.86;100877.94;5129896;27;20027;-66
2024/03/14 11:03:38;;;;;;;13.05;4.90;;;;;;;14.27;82.84;100884.56;5130353;27;20035;-66
2024/03/14 11:06:12;;;;;;;10.63;5.43;;;;;;;14.44;83.36;100880.22;5130296;27;20480;-66
2024/03/14 11:08:43;;;;;;;12.23;5.05;;;;;;;14.58;83.47;100871.75;5130633;27;20079;-66
2024/03/14 11:11:12;;;;;;;15.43;5.93;;;;;;;14.69;82.25;100873.22;5130030;27;20139;-66
2024/03/14 11:13:46;;;;;;;12.02;4.60;;;;;;;14.83;81.12;100876.03;5130386;27;20080;-66
2024/03/14 11:16:13;;;;;;;9.52;3.35;;;;;;;14.80;82.42;100865.06;5134932;27;20058;-66
2024/03/14 11:18:43;;;;;;;13.35;3.47;;;;;;;14.81;82.82;100864.91;5128791;27;20049;-66
2024/03/14 11:21:12;;;;;;;9.20;4.35;;;;;;;14.92;82.63;100861.97;5115827;27;20386;-66
2024/03/14 11:23:40;;;;;;;7.95;3.13;;;;;;;14.88;83.03;100863.25;5110628;27;20031;-66
2024/03/14 11:26:15;;;;;;;6.10;1.95;;;;;;;14.66;79.11;100852.56;5134251;27;20035;-66
2024/03/14 11:28:41;;;;;;;;;;;;;;;14.59;73.72;100857.66;5134386;27;20038;-66